PWSweather.com
Personal Weather Stations
Station Observations
KC4KQE
Superstition Mountains, Apache Junction, AZ 85119

Superstition MountainsApache Junction, AZ 85119

Lat: 33.41578, Lon: -111.49328

Elevation: 1850

Station Type: Davis Vantage Pro2 Plus

http://kc4kqe.org/

High Low Average
Temperature 102.1°F38.9°C 75.8°F24.3°C 90.7°F32.6°C
Dew Point 72.2°F22.3°C 59.3°F15.2°C 65.5°F18.6°C
Winds 12.0 mph 19.3 kmh Calm Calm 4.0 mph SSW6.4 kmh SSW
Wind Gusts 14.0 mph22.5 kmh -- 8.0 mph12.9 kmh
Humidity 86% 27% 47%
Pressure 30.05 in1017.6 mb 29.86 in1011.2 mb -
Precipitation 0.25 in6.4 mm - -
Hour Temp Dew Point Humidity Winds Wind Gusts Pressure Precip Precip Rate Daily Precip Total
12:00 AM 92.0°F33.3°C 59.5°F15.3°C 34% Calm Calm -- 29.95 in1014.2 mb 0.00 in0.0 mm 0.00 in0.0 mm 0.00 in0.0 mm
12:05 AM 91.8°F33.2°C 59.3°F15.2°C 34% Calm Calm 1.0 mph1.6 kmh 29.95 in1014.2 mb 0.00 in0.0 mm 0.00 in0.0 mm 0.00 in0.0 mm
12:10 AM 91.6°F33.1°C 60.0°F15.6°C 35% Calm Calm -- 29.95 in1014.2 mb 0.00 in0.0 mm 0.00 in0.0 mm 0.00 in0.0 mm
12:15 AM 91.4°F33.0°C 59.8°F15.4°C 35% Calm Calm -- 29.95 in1014.2 mb 0.00 in0.0 mm 0.00 in0.0 mm 0.00 in0.0 mm
12:20 AM 91.3°F32.9°C 59.7°F15.4°C 35% Calm Calm -- 29.95 in1014.2 mb 0.00 in0.0 mm 0.00 in0.0 mm 0.00 in0.0 mm
12:25 AM 91.2°F32.9°C 59.6°F15.3°C 35% Calm Calm -- 29.95 in1014.2 mb 0.00 in0.0 mm 0.00 in0.0 mm 0.00 in0.0 mm
12:30 AM 91.1°F32.8°C 59.5°F15.3°C 35% Calm Calm -- 29.95 in1014.2 mb 0.00 in0.0 mm 0.00 in0.0 mm 0.00 in0.0 mm
12:35 AM 91.1°F32.8°C 59.5°F15.3°C 35% Calm Calm -- 29.95 in1014.2 mb 0.00 in0.0 mm 0.00 in0.0 mm 0.00 in0.0 mm
12:40 AM 91.1°F32.8°C 59.5°F15.3°C 35% Calm Calm -- 29.95 in1014.2 mb 0.00 in0.0 mm 0.00 in0.0 mm 0.00 in0.0 mm
12:45 AM 91.0°F32.8°C 59.4°F15.2°C 35% 1.0 mph SE1.6 kmh SE 1.0 mph1.6 kmh 29.95 in1014.2 mb 0.00 in0.0 mm 0.00 in0.0 mm 0.00 in0.0 mm
12:50 AM 91.0°F32.8°C 59.4°F15.2°C 35% Calm Calm 2.0 mph3.2 kmh 29.95 in1014.2 mb 0.00 in0.0 mm 0.00 in0.0 mm 0.00 in0.0 mm
12:55 AM 90.9°F32.7°C 59.4°F15.2°C 35% Calm Calm -- 29.95 in1014.2 mb 0.00 in0.0 mm 0.00 in0.0 mm 0.00 in0.0 mm
01:00 AM 90.9°F32.7°C 59.4°F15.2°C 35% Calm Calm -- 29.95 in1014.2 mb 0.00 in0.0 mm 0.00 in0.0 mm 0.00 in0.0 mm
01:05 AM 90.8°F32.7°C 59.3°F15.2°C 35% Calm Calm -- 29.96 in1014.6 mb 0.00 in0.0 mm 0.00 in0.0 mm 0.00 in0.0 mm
01:10 AM 90.8°F32.7°C 59.3°F15.2°C 35% Calm Calm 2.0 mph3.2 kmh 29.96 in1014.6 mb 0.00 in0.0 mm 0.00 in0.0 mm 0.00 in0.0 mm
01:15 AM 90.8°F32.7°C 59.3°F15.2°C 35% Calm Calm 4.0 mph6.4 kmh 29.96 in1014.6 mb 0.00 in0.0 mm 0.00 in0.0 mm 0.00 in0.0 mm
01:20 AM 90.9°F32.7°C 59.4°F15.2°C 35% Calm Calm 3.0 mph4.8 kmh 29.96 in1014.6 mb 0.00 in0.0 mm 0.00 in0.0 mm 0.00 in0.0 mm
01:25 AM 91.0°F32.8°C 59.4°F15.2°C 35% Calm Calm 2.0 mph3.2 kmh 29.96 in1014.6 mb 0.00 in0.0 mm 0.00 in0.0 mm 0.00 in0.0 mm
01:30 AM 91.1°F32.8°C 59.5°F15.3°C 35% Calm Calm -- 29.96 in1014.6 mb 0.00 in0.0 mm 0.00 in0.0 mm 0.00 in0.0 mm
01:35 AM 91.1°F32.8°C 59.5°F15.3°C 35% Calm Calm -- 29.96 in1014.6 mb 0.00 in0.0 mm 0.00 in0.0 mm 0.00 in0.0 mm
01:40 AM 91.1°F32.8°C 60.3°F15.7°C 36% 3.0 mph SSW4.8 kmh SSW 4.0 mph6.4 kmh 29.96 in1014.6 mb 0.00 in0.0 mm 0.00 in0.0 mm 0.00 in0.0 mm
01:45 AM 91.1°F32.8°C 61.9°F16.6°C 38% 4.0 mph SW6.4 kmh SW 7.0 mph11.3 kmh 29.96 in1014.6 mb 0.00 in0.0 mm 0.00 in0.0 mm 0.00 in0.0 mm
01:50 AM 90.9°F32.7°C 62.4°F16.9°C 39% 5.0 mph SSW8.0 kmh SSW 6.0 mph9.7 kmh 29.96 in1014.6 mb 0.00 in0.0 mm 0.00 in0.0 mm 0.00 in0.0 mm
01:55 AM 90.7°F32.6°C 63.0°F17.2°C 40% 3.0 mph SW4.8 kmh SW 6.0 mph9.7 kmh 29.96 in1014.6 mb 0.00 in0.0 mm 0.00 in0.0 mm 0.00 in0.0 mm
02:00 AM 90.5°F32.5°C 62.8°F17.1°C 40% 1.0 mph S1.6 kmh S 4.0 mph6.4 kmh 29.96 in1014.6 mb 0.00 in0.0 mm 0.00 in0.0 mm 0.00 in0.0 mm
02:05 AM 90.3°F32.4°C 62.6°F17.0°C 40% 2.0 mph S3.2 kmh S 3.0 mph4.8 kmh 29.96 in1014.6 mb 0.00 in0.0 mm 0.00 in0.0 mm 0.00 in0.0 mm
02:10 AM 90.2°F32.3°C 62.5°F16.9°C 40% 3.0 mph S4.8 kmh S 6.0 mph9.7 kmh 29.96 in1014.6 mb 0.00 in0.0 mm 0.00 in0.0 mm 0.00 in0.0 mm
02:15 AM 90.0°F32.2°C 63.0°F17.2°C 41% 1.0 mph S1.6 kmh S 6.0 mph9.7 kmh 29.96 in1014.6 mb 0.00 in0.0 mm 0.00 in0.0 mm 0.00 in0.0 mm
02:20 AM 89.7°F32.1°C 62.8°F17.1°C 41% 3.0 mph S4.8 kmh S 6.0 mph9.7 kmh 29.96 in1014.6 mb 0.00 in0.0 mm 0.00 in0.0 mm 0.00 in0.0 mm
02:25 AM 89.6°F32.0°C 62.7°F17.1°C 41% 4.0 mph S6.4 kmh S 7.0 mph11.3 kmh 29.96 in1014.6 mb 0.00 in0.0 mm 0.00 in0.0 mm 0.00 in0.0 mm
02:30 AM 89.4°F31.9°C 62.5°F16.9°C 41% 3.0 mph S4.8 kmh S 7.0 mph11.3 kmh 29.96 in1014.6 mb 0.00 in0.0 mm 0.00 in0.0 mm 0.00 in0.0 mm
02:35 AM 89.3°F31.8°C 62.4°F16.9°C 41% 2.0 mph S3.2 kmh S 7.0 mph11.3 kmh 29.96 in1014.6 mb 0.00 in0.0 mm 0.00 in0.0 mm 0.00 in0.0 mm
02:40 AM 89.3°F31.8°C 62.4°F16.9°C 41% 2.0 mph SSE3.2 kmh SSE 6.0 mph9.7 kmh 29.96 in1014.6 mb 0.00 in0.0 mm 0.00 in0.0 mm 0.00 in0.0 mm
02:45 AM 89.3°F31.8°C 62.4°F16.9°C 41% 1.0 mph SE1.6 kmh SE 5.0 mph8.0 kmh 29.96 in1014.6 mb 0.00 in0.0 mm 0.00 in0.0 mm 0.00 in0.0 mm
02:50 AM 89.4°F31.9°C 62.5°F16.9°C 41% 7.0 mph ESE11.3 kmh ESE 13.0 mph20.9 kmh 29.96 in1014.6 mb 0.00 in0.0 mm 0.00 in0.0 mm 0.00 in0.0 mm
02:55 AM 89.3°F31.8°C 63.1°F17.3°C 42% 9.0 mph S14.5 kmh S 14.0 mph22.5 kmh 29.97 in1014.9 mb 0.00 in0.0 mm 0.00 in0.0 mm 0.00 in0.0 mm
03:00 AM 88.9°F31.6°C 63.4°F17.4°C 43% 8.0 mph ESE12.9 kmh ESE 14.0 mph22.5 kmh 29.97 in1014.9 mb 0.00 in0.0 mm 0.00 in0.0 mm 0.00 in0.0 mm
03:05 AM 88.7°F31.5°C 63.2°F17.3°C 43% 8.0 mph SE12.9 kmh SE 12.0 mph19.3 kmh 29.97 in1014.9 mb 0.00 in0.0 mm 0.00 in0.0 mm 0.00 in0.0 mm
03:10 AM 88.7°F31.5°C 64.5°F18.1°C 45% 7.0 mph SE11.3 kmh SE 13.0 mph20.9 kmh 29.98 in1015.2 mb 0.00 in0.0 mm 0.00 in0.0 mm 0.00 in0.0 mm
03:15 AM 87.5°F30.8°C 67.6°F19.8°C 52% 5.0 mph SE8.0 kmh SE 12.0 mph19.3 kmh 29.98 in1015.2 mb 0.01 in0.3 mm 0.12 in3.0 mm 0.01 in0.3 mm
03:20 AM 85.7°F29.8°C 69.6°F20.9°C 59% 5.0 mph SE8.0 kmh SE 11.0 mph17.7 kmh 29.98 in1015.2 mb 0.04 in1.0 mm 0.36 in9.1 mm 0.04 in1.0 mm
03:25 AM 84.1°F28.9°C 71.0°F21.7°C 65% 3.0 mph SE4.8 kmh SE 6.0 mph9.7 kmh 29.99 in1015.6 mb 0.04 in1.0 mm 0.00 in0.0 mm 0.04 in1.0 mm
03:30 AM 82.6°F28.1°C 70.0°F21.1°C 66% 3.0 mph SE4.8 kmh SE 11.0 mph17.7 kmh 29.99 in1015.6 mb 0.05 in1.3 mm 0.12 in3.0 mm 0.05 in1.3 mm
03:35 AM 81.3°F27.4°C 70.5°F21.4°C 70% 7.0 mph SE11.3 kmh SE 11.0 mph17.7 kmh 29.99 in1015.6 mb 0.07 in1.8 mm 0.24 in6.1 mm 0.07 in1.8 mm
03:40 AM 80.2°F26.8°C 70.3°F21.3°C 72% 7.0 mph SE11.3 kmh SE 10.0 mph16.1 kmh 29.99 in1015.6 mb 0.08 in2.0 mm 0.12 in3.0 mm 0.08 in2.0 mm
03:45 AM 79.3°F26.3°C 70.2°F21.2°C 74% 7.0 mph SE11.3 kmh SE 10.0 mph16.1 kmh 29.99 in1015.6 mb 0.08 in2.0 mm 0.00 in0.0 mm 0.08 in2.0 mm
03:50 AM 78.9°F26.1°C 70.2°F21.2°C 75% 3.0 mph SE4.8 kmh SE 8.0 mph12.9 kmh 29.99 in1015.6 mb 0.08 in2.0 mm 0.00 in0.0 mm 0.08 in2.0 mm
03:55 AM 78.7°F25.9°C 70.0°F21.1°C 75% 5.0 mph SE8.0 kmh SE 8.0 mph12.9 kmh 30.00 in1015.9 mb 0.08 in2.0 mm 0.00 in0.0 mm 0.08 in2.0 mm
04:00 AM 78.7°F25.9°C 70.4°F21.3°C 76% 5.0 mph SE8.0 kmh SE 9.0 mph14.5 kmh 30.00 in1015.9 mb 0.10 in2.5 mm 0.02 in0.5 mm 0.10 in2.5 mm
04:05 AM 78.5°F25.8°C 70.6°F21.4°C 77% 2.0 mph SE3.2 kmh SE 6.0 mph9.7 kmh 30.00 in1015.9 mb 0.11 in2.8 mm 0.12 in3.0 mm 0.11 in2.8 mm
04:10 AM 78.3°F25.7°C 70.8°F21.6°C 78% 2.0 mph SE3.2 kmh SE 7.0 mph11.3 kmh 30.01 in1016.3 mb 0.17 in4.3 mm 0.72 in18.3 mm 0.17 in4.3 mm
04:15 AM 78.1°F25.6°C 71.0°F21.7°C 79% 2.0 mph SSE3.2 kmh SSE 5.0 mph8.0 kmh 30.01 in1016.3 mb 0.18 in4.6 mm 0.12 in3.0 mm 0.19 in4.8 mm
04:20 AM 77.9°F25.5°C 71.5°F21.9°C 81% Calm Calm 4.0 mph6.4 kmh 30.01 in1016.3 mb 0.15 in3.8 mm 0.00 in0.0 mm 0.19 in4.8 mm
04:25 AM 77.8°F25.4°C 71.8°F22.1°C 82% Calm Calm 3.0 mph4.8 kmh 30.01 in1016.3 mb 0.16 in4.1 mm 0.12 in3.0 mm 0.20 in5.1 mm
04:30 AM 77.7°F25.4°C 71.7°F22.1°C 82% Calm Calm 2.0 mph3.2 kmh 30.01 in1016.3 mb 0.15 in3.8 mm 0.00 in0.0 mm 0.20 in5.1 mm
04:35 AM 77.5°F25.3°C 71.9°F22.2°C 83% Calm Calm 1.0 mph1.6 kmh 30.02 in1016.6 mb 0.13 in3.3 mm 0.00 in0.0 mm 0.20 in5.1 mm
04:40 AM 77.3°F25.2°C 71.7°F22.1°C 83% 3.0 mph SE4.8 kmh SE 7.0 mph11.3 kmh 30.02 in1016.6 mb 0.12 in3.0 mm 0.00 in0.0 mm 0.20 in5.1 mm
04:45 AM 77.0°F25.0°C 71.7°F22.1°C 84% 5.0 mph SE8.0 kmh SE 5.0 mph8.0 kmh 30.02 in1016.6 mb 0.12 in3.0 mm 0.00 in0.0 mm 0.20 in5.1 mm
04:50 AM 76.7°F24.8°C 71.4°F21.9°C 84% 2.0 mph ESE3.2 kmh ESE 7.0 mph11.3 kmh 30.03 in1016.9 mb 0.12 in3.0 mm 0.00 in0.0 mm 0.20 in5.1 mm
04:55 AM 76.5°F24.7°C 71.2°F21.8°C 84% 2.0 mph E3.2 kmh E 5.0 mph8.0 kmh 30.03 in1016.9 mb 0.12 in3.0 mm 0.00 in0.0 mm 0.20 in5.1 mm
05:00 AM 76.5°F24.7°C 71.2°F21.8°C 84% Calm Calm 2.0 mph3.2 kmh 30.03 in1016.9 mb 0.12 in3.0 mm 0.00 in0.0 mm 0.22 in5.6 mm
05:05 AM 76.6°F24.8°C 71.7°F22.1°C 85% Calm Calm 1.0 mph1.6 kmh 30.03 in1016.9 mb 0.13 in3.3 mm 0.12 in3.0 mm 0.24 in6.1 mm
05:10 AM 76.7°F24.8°C 71.8°F22.1°C 85% Calm Calm -- 30.03 in1016.9 mb 0.07 in1.8 mm 0.00 in0.0 mm 0.24 in6.1 mm
05:15 AM 76.8°F24.9°C 72.2°F22.3°C 86% 3.0 mph NW4.8 kmh NW 6.0 mph9.7 kmh 30.03 in1016.9 mb 0.05 in1.3 mm 0.00 in0.0 mm 0.24 in6.1 mm
05:20 AM 76.5°F24.7°C 71.6°F22.0°C 85% 5.0 mph SW8.0 kmh SW 8.0 mph12.9 kmh 30.03 in1016.9 mb 0.05 in1.3 mm 0.00 in0.0 mm 0.24 in6.1 mm
05:25 AM 76.4°F24.7°C 71.5°F21.9°C 85% 9.0 mph NW14.5 kmh NW 10.0 mph16.1 kmh 30.03 in1016.9 mb 0.04 in1.0 mm 0.00 in0.0 mm 0.24 in6.1 mm
05:30 AM 76.3°F24.6°C 71.0°F21.7°C 84% 4.0 mph NNW6.4 kmh NNW 9.0 mph14.5 kmh 30.03 in1016.9 mb 0.04 in1.0 mm 0.00 in0.0 mm 0.24 in6.1 mm
05:35 AM 76.2°F24.6°C 70.9°F21.6°C 84% 3.0 mph N4.8 kmh N 8.0 mph12.9 kmh 30.03 in1016.9 mb 0.04 in1.0 mm 0.00 in0.0 mm 0.24 in6.1 mm
05:40 AM 76.2°F24.6°C 70.9°F21.6°C 84% 7.0 mph N11.3 kmh N 10.0 mph16.1 kmh 30.03 in1016.9 mb 0.04 in1.0 mm 0.00 in0.0 mm 0.24 in6.1 mm
05:45 AM 76.2°F24.6°C 70.9°F21.6°C 84% 6.0 mph NNE9.7 kmh NNE 13.0 mph20.9 kmh 30.04 in1017.3 mb 0.04 in1.0 mm 0.00 in0.0 mm 0.24 in6.1 mm
05:50 AM 76.1°F24.5°C 70.9°F21.6°C 84% 7.0 mph N11.3 kmh N 14.0 mph22.5 kmh 30.04 in1017.3 mb 0.04 in1.0 mm 0.00 in0.0 mm 0.24 in6.1 mm
05:55 AM 76.0°F24.4°C 70.8°F21.6°C 84% 6.0 mph NNW9.7 kmh NNW 12.0 mph19.3 kmh 30.04 in1017.3 mb 0.04 in1.0 mm 0.00 in0.0 mm 0.24 in6.1 mm
06:00 AM 75.8°F24.3°C 70.2°F21.2°C 83% 6.0 mph N9.7 kmh N 12.0 mph19.3 kmh 30.04 in1017.3 mb 0.02 in0.5 mm 0.00 in0.0 mm 0.24 in6.1 mm
06:05 AM 75.8°F24.3°C 70.2°F21.2°C 83% 10.0 mph N16.1 kmh N 13.0 mph20.9 kmh 30.04 in1017.3 mb 0.00 in0.0 mm 0.00 in0.0 mm 0.24 in6.1 mm
06:10 AM 75.9°F24.4°C 70.3°F21.3°C 83% 6.0 mph N9.7 kmh N 11.0 mph17.7 kmh 30.04 in1017.3 mb 0.00 in0.0 mm 0.00 in0.0 mm 0.24 in6.1 mm
06:15 AM 76.0°F24.4°C 70.4°F21.3°C 83% 4.0 mph 6.4 kmh 10.0 mph16.1 kmh 30.04 in1017.3 mb 0.00 in0.0 mm 0.00 in0.0 mm 0.24 in6.1 mm
06:20 AM 76.1°F24.5°C 70.5°F21.4°C 83% 6.0 mph N9.7 kmh N 9.0 mph14.5 kmh 30.04 in1017.3 mb 0.00 in0.0 mm 0.00 in0.0 mm 0.24 in6.1 mm
06:25 AM 76.1°F24.5°C 70.5°F21.4°C 83% 6.0 mph NNW9.7 kmh NNW 9.0 mph14.5 kmh 30.04 in1017.3 mb 0.00 in0.0 mm 0.00 in0.0 mm 0.24 in6.1 mm
06:30 AM 76.3°F24.6°C 70.7°F21.5°C 83% 4.0 mph NNW6.4 kmh NNW 7.0 mph11.3 kmh 30.04 in1017.3 mb 0.01 in0.3 mm 0.12 in3.0 mm 0.25 in6.4 mm
06:35 AM 76.4°F24.7°C 71.1°F21.7°C 84% 7.0 mph N11.3 kmh N 8.0 mph12.9 kmh 30.05 in1017.6 mb 0.01 in0.3 mm 0.00 in0.0 mm 0.25 in6.4 mm
06:40 AM 76.3°F24.6°C 71.0°F21.7°C 84% 7.0 mph NNW11.3 kmh NNW 12.0 mph19.3 kmh 30.04 in1017.3 mb 0.01 in0.3 mm 0.00 in0.0 mm 0.25 in6.4 mm
06:45 AM 76.2°F24.6°C 70.9°F21.6°C 84% 10.0 mph NW16.1 kmh NW 11.0 mph17.7 kmh 30.04 in1017.3 mb 0.01 in0.3 mm 0.00 in0.0 mm 0.25 in6.4 mm
06:50 AM 76.2°F24.6°C 70.9°F21.6°C 84% 6.0 mph N9.7 kmh N 10.0 mph16.1 kmh 30.04 in1017.3 mb 0.01 in0.3 mm 0.00 in0.0 mm 0.25 in6.4 mm
06:55 AM 76.3°F24.6°C 71.0°F21.7°C 84% 7.0 mph 11.3 kmh 12.0 mph19.3 kmh 30.04 in1017.3 mb 0.01 in0.3 mm 0.00 in0.0 mm 0.25 in6.4 mm
07:00 AM 76.5°F24.7°C 71.2°F21.8°C 84% 8.0 mph NNW12.9 kmh NNW 11.0 mph17.7 kmh 30.04 in1017.3 mb 0.01 in0.3 mm 0.00 in0.0 mm 0.25 in6.4 mm
07:05 AM 76.7°F24.8°C 71.1°F21.7°C 83% 5.0 mph N8.0 kmh N 11.0 mph17.7 kmh 30.04 in1017.3 mb 0.01 in0.3 mm 0.00 in0.0 mm 0.25 in6.4 mm
07:10 AM 77.0°F25.0°C 71.0°F21.7°C 82% 6.0 mph N9.7 kmh N 10.0 mph16.1 kmh 30.04 in1017.3 mb 0.01 in0.3 mm 0.00 in0.0 mm 0.25 in6.4 mm
07:15 AM 77.4°F25.2°C 71.0°F21.7°C 81% 6.0 mph NNW9.7 kmh NNW 9.0 mph14.5 kmh 30.04 in1017.3 mb 0.01 in0.3 mm 0.00 in0.0 mm 0.25 in6.4 mm
07:20 AM 77.8°F25.4°C 71.1°F21.7°C 80% 8.0 mph N12.9 kmh N 10.0 mph16.1 kmh 30.04 in1017.3 mb 0.01 in0.3 mm 0.00 in0.0 mm 0.25 in6.4 mm
07:25 AM 78.1°F25.6°C 70.6°F21.4°C 78% 6.0 mph NNW9.7 kmh NNW 13.0 mph20.9 kmh 30.03 in1016.9 mb 0.01 in0.3 mm 0.00 in0.0 mm 0.25 in6.4 mm
07:30 AM 78.7°F25.9°C 70.8°F21.6°C 77% 7.0 mph N11.3 kmh N 13.0 mph20.9 kmh 30.03 in1016.9 mb 0.00 in0.0 mm 0.00 in0.0 mm 0.25 in6.4 mm
07:35 AM 79.3°F26.3°C 70.6°F21.4°C 75% 12.0 mph 19.3 kmh 13.0 mph20.9 kmh 30.04 in1017.3 mb 0.00 in0.0 mm 0.00 in0.0 mm 0.25 in6.4 mm
07:40 AM 79.9°F26.6°C 70.4°F21.3°C 73% 9.0 mph NNW14.5 kmh NNW 12.0 mph19.3 kmh 30.04 in1017.3 mb 0.00 in0.0 mm 0.00 in0.0 mm 0.25 in6.4 mm
07:45 AM 80.5°F26.9°C 70.2°F21.2°C 71% 6.0 mph N9.7 kmh N 14.0 mph22.5 kmh 30.04 in1017.3 mb 0.00 in0.0 mm 0.00 in0.0 mm 0.25 in6.4 mm
07:50 AM 80.9°F27.2°C 70.1°F21.2°C 70% 6.0 mph N9.7 kmh N 13.0 mph20.9 kmh 30.04 in1017.3 mb 0.00 in0.0 mm 0.00 in0.0 mm 0.25 in6.4 mm
07:55 AM 81.1°F27.3°C 70.3°F21.3°C 70% 5.0 mph N8.0 kmh N 13.0 mph20.9 kmh 30.04 in1017.3 mb 0.00 in0.0 mm 0.00 in0.0 mm 0.25 in6.4 mm
08:00 AM 81.5°F27.5°C 70.7°F21.5°C 70% 9.0 mph NNW14.5 kmh NNW 13.0 mph20.9 kmh 30.04 in1017.3 mb 0.00 in0.0 mm 0.00 in0.0 mm 0.25 in6.4 mm
08:05 AM 81.8°F27.7°C 70.6°F21.4°C 69% 6.0 mph N9.7 kmh N 14.0 mph22.5 kmh 30.04 in1017.3 mb 0.00 in0.0 mm 0.00 in0.0 mm 0.25 in6.4 mm
08:10 AM 82.0°F27.8°C 70.3°F21.3°C 68% 5.0 mph N8.0 kmh N 13.0 mph20.9 kmh 30.04 in1017.3 mb 0.00 in0.0 mm 0.00 in0.0 mm 0.25 in6.4 mm
08:15 AM 82.1°F27.8°C 70.4°F21.3°C 68% 4.0 mph NE6.4 kmh NE 11.0 mph17.7 kmh 30.04 in1017.3 mb 0.00 in0.0 mm 0.00 in0.0 mm 0.25 in6.4 mm
08:20 AM 82.1°F27.8°C 70.4°F21.3°C 68% 4.0 mph N6.4 kmh N 11.0 mph17.7 kmh 30.04 in1017.3 mb 0.00 in0.0 mm 0.00 in0.0 mm 0.25 in6.4 mm
08:25 AM 82.2°F27.9°C 70.5°F21.4°C 68% 7.0 mph NE11.3 kmh NE 10.0 mph16.1 kmh 30.04 in1017.3 mb 0.00 in0.0 mm 0.00 in0.0 mm 0.25 in6.4 mm
08:30 AM 82.4°F28.0°C 70.7°F21.5°C 68% 5.0 mph NE8.0 kmh NE 9.0 mph14.5 kmh 30.04 in1017.3 mb 0.00 in0.0 mm 0.00 in0.0 mm 0.25 in6.4 mm
08:35 AM 82.7°F28.2°C 70.5°F21.4°C 67% 3.0 mph NE4.8 kmh NE 12.0 mph19.3 kmh 30.04 in1017.3 mb 0.00 in0.0 mm 0.00 in0.0 mm 0.25 in6.4 mm
08:40 AM 83.0°F28.3°C 70.8°F21.6°C 67% 4.0 mph N6.4 kmh N 10.0 mph16.1 kmh 30.04 in1017.3 mb 0.00 in0.0 mm 0.00 in0.0 mm 0.25 in6.4 mm
08:45 AM 83.5°F28.6°C 71.7°F22.1°C 68% Calm Calm 8.0 mph12.9 kmh 30.04 in1017.3 mb 0.00 in0.0 mm 0.00 in0.0 mm 0.25 in6.4 mm
08:50 AM 84.1°F28.9°C 71.0°F21.7°C 65% 7.0 mph NNE11.3 kmh NNE 7.0 mph11.3 kmh 30.04 in1017.3 mb 0.00 in0.0 mm 0.00 in0.0 mm 0.25 in6.4 mm
08:55 AM 84.8°F29.3°C 70.7°F21.5°C 63% 2.0 mph N3.2 kmh N 7.0 mph11.3 kmh 30.04 in1017.3 mb 0.00 in0.0 mm 0.00 in0.0 mm 0.25 in6.4 mm
09:00 AM 85.6°F29.8°C 71.0°F21.7°C 62% 2.0 mph NNE3.2 kmh NNE 5.0 mph8.0 kmh 30.04 in1017.3 mb 0.00 in0.0 mm 0.00 in0.0 mm 0.25 in6.4 mm
09:05 AM 86.3°F30.2°C 70.2°F21.2°C 59% Calm Calm 3.0 mph4.8 kmh 30.04 in1017.3 mb 0.00 in0.0 mm 0.00 in0.0 mm 0.25 in6.4 mm
09:10 AM 87.1°F30.6°C 69.4°F20.8°C 56% Calm Calm 2.0 mph3.2 kmh 30.04 in1017.3 mb 0.00 in0.0 mm 0.00 in0.0 mm 0.25 in6.4 mm
09:15 AM 88.1°F31.2°C 68.7°F20.4°C 53% 1.0 mph SE1.6 kmh SE 7.0 mph11.3 kmh 30.04 in1017.3 mb 0.00 in0.0 mm 0.00 in0.0 mm 0.25 in6.4 mm
09:20 AM 88.7°F31.5°C 68.2°F20.1°C 51% Calm Calm 6.0 mph9.7 kmh 30.04 in1017.3 mb 0.00 in0.0 mm 0.00 in0.0 mm 0.25 in6.4 mm
09:25 AM 89.4°F31.9°C 68.2°F20.1°C 50% Calm Calm 6.0 mph9.7 kmh 30.04 in1017.3 mb 0.00 in0.0 mm 0.00 in0.0 mm 0.25 in6.4 mm
09:30 AM 90.2°F32.3°C 70.1°F21.2°C 52% 3.0 mph SSW4.8 kmh SSW 7.0 mph11.3 kmh 30.04 in1017.3 mb 0.00 in0.0 mm 0.00 in0.0 mm 0.25 in6.4 mm
09:35 AM 90.7°F32.6°C 69.4°F20.8°C 50% 2.0 mph SW3.2 kmh SW 6.0 mph9.7 kmh 30.04 in1017.3 mb 0.00 in0.0 mm 0.00 in0.0 mm 0.25 in6.4 mm
09:40 AM 91.2°F32.9°C 69.9°F21.1°C 50% 4.0 mph WSW6.4 kmh WSW 7.0 mph11.3 kmh 30.04 in1017.3 mb 0.00 in0.0 mm 0.00 in0.0 mm 0.25 in6.4 mm
09:45 AM 91.5°F33.1°C 70.1°F21.2°C 50% 7.0 mph SSW11.3 kmh SSW 7.0 mph11.3 kmh 30.04 in1017.3 mb 0.00 in0.0 mm 0.00 in0.0 mm 0.25 in6.4 mm
09:50 AM 91.6°F33.1°C 69.0°F20.6°C 48% 7.0 mph WSW11.3 kmh WSW 9.0 mph14.5 kmh 30.04 in1017.3 mb 0.00 in0.0 mm 0.00 in0.0 mm 0.25 in6.4 mm
09:55 AM 91.0°F32.8°C 69.1°F20.6°C 49% 6.0 mph SW9.7 kmh SW 11.0 mph17.7 kmh 30.04 in1017.3 mb 0.00 in0.0 mm 0.00 in0.0 mm 0.25 in6.4 mm
10:00 AM 90.8°F32.7°C 68.9°F20.5°C 49% 4.0 mph WSW6.4 kmh WSW 9.0 mph14.5 kmh 30.04 in1017.3 mb 0.00 in0.0 mm 0.00 in0.0 mm 0.25 in6.4 mm
10:05 AM 90.9°F32.7°C 68.4°F20.2°C 48% 6.0 mph SW9.7 kmh SW 8.0 mph12.9 kmh 30.03 in1016.9 mb 0.00 in0.0 mm 0.00 in0.0 mm 0.25 in6.4 mm
10:10 AM 91.1°F32.8°C 68.6°F20.3°C 48% 4.0 mph W6.4 kmh W 10.0 mph16.1 kmh 30.03 in1016.9 mb 0.00 in0.0 mm 0.00 in0.0 mm 0.25 in6.4 mm
10:15 AM 91.1°F32.8°C 68.0°F20.0°C 47% 1.0 mph NNE1.6 kmh NNE 11.0 mph17.7 kmh 30.03 in1016.9 mb 0.00 in0.0 mm 0.00 in0.0 mm 0.25 in6.4 mm
10:20 AM 91.2°F32.9°C 68.1°F20.1°C 47% 4.0 mph WNW6.4 kmh WNW 10.0 mph16.1 kmh 30.03 in1016.9 mb 0.00 in0.0 mm 0.00 in0.0 mm 0.25 in6.4 mm
10:25 AM 91.2°F32.9°C 67.4°F19.7°C 46% 7.0 mph WSW11.3 kmh WSW 12.0 mph19.3 kmh 30.03 in1016.9 mb 0.00 in0.0 mm 0.00 in0.0 mm 0.25 in6.4 mm
10:30 AM 91.3°F32.9°C 68.1°F20.1°C 47% 4.0 mph WSW6.4 kmh WSW 8.0 mph12.9 kmh 30.03 in1016.9 mb 0.00 in0.0 mm 0.00 in0.0 mm 0.25 in6.4 mm
10:35 AM 91.3°F32.9°C 66.9°F19.4°C 45% 3.0 mph SW4.8 kmh SW 9.0 mph14.5 kmh 30.03 in1016.9 mb 0.00 in0.0 mm 0.00 in0.0 mm 0.25 in6.4 mm
10:40 AM 91.2°F32.9°C 67.4°F19.7°C 46% 5.0 mph SW8.0 kmh SW 8.0 mph12.9 kmh 30.03 in1016.9 mb 0.00 in0.0 mm 0.00 in0.0 mm 0.25 in6.4 mm
10:45 AM 91.4°F33.0°C 66.3°F19.1°C 44% 5.0 mph SW8.0 kmh SW 10.0 mph16.1 kmh 30.02 in1016.6 mb 0.00 in0.0 mm 0.00 in0.0 mm 0.25 in6.4 mm
10:50 AM 91.8°F33.2°C 66.7°F19.3°C 44% 4.0 mph W6.4 kmh W 10.0 mph16.1 kmh 30.02 in1016.6 mb 0.00 in0.0 mm 0.00 in0.0 mm 0.25 in6.4 mm
10:55 AM 92.0°F33.3°C 66.9°F19.4°C 44% 6.0 mph WSW9.7 kmh WSW 10.0 mph16.1 kmh 30.02 in1016.6 mb 0.00 in0.0 mm 0.00 in0.0 mm 0.25 in6.4 mm
11:00 AM 92.4°F33.6°C 67.9°F19.9°C 45% 3.0 mph SW4.8 kmh SW 11.0 mph17.7 kmh 30.02 in1016.6 mb 0.00 in0.0 mm 0.00 in0.0 mm 0.25 in6.4 mm
11:05 AM 92.8°F33.8°C 66.2°F19.0°C 42% 9.0 mph WSW14.5 kmh WSW 10.0 mph16.1 kmh 30.02 in1016.6 mb 0.00 in0.0 mm 0.00 in0.0 mm 0.25 in6.4 mm
11:10 AM 93.2°F34.0°C 67.3°F19.6°C 43% 4.0 mph WNW6.4 kmh WNW 10.0 mph16.1 kmh 30.02 in1016.6 mb 0.00 in0.0 mm 0.00 in0.0 mm 0.25 in6.4 mm
11:15 AM 93.5°F34.2°C 66.9°F19.4°C 42% Calm Calm 9.0 mph14.5 kmh 30.01 in1016.3 mb 0.00 in0.0 mm 0.00 in0.0 mm 0.25 in6.4 mm
11:20 AM 93.8°F34.3°C 67.1°F19.5°C 42% 2.0 mph S3.2 kmh S 7.0 mph11.3 kmh 30.01 in1016.3 mb 0.00 in0.0 mm 0.00 in0.0 mm 0.25 in6.4 mm
11:25 AM 94.2°F34.6°C 66.1°F18.9°C 40% 6.0 mph WSW9.7 kmh WSW 9.0 mph14.5 kmh 30.01 in1016.3 mb 0.00 in0.0 mm 0.00 in0.0 mm 0.25 in6.4 mm
11:30 AM 94.8°F34.9°C 66.6°F19.2°C 40% Calm Calm 9.0 mph14.5 kmh 30.01 in1016.3 mb 0.00 in0.0 mm 0.00 in0.0 mm 0.25 in6.4 mm
11:35 AM 95.3°F35.2°C 67.1°F19.5°C 40% 4.0 mph SW6.4 kmh SW 7.0 mph11.3 kmh 30.01 in1016.3 mb 0.00 in0.0 mm 0.00 in0.0 mm 0.25 in6.4 mm
11:40 AM 95.4°F35.2°C 65.7°F18.7°C 38% 4.0 mph W6.4 kmh W 8.0 mph12.9 kmh 30.01 in1016.3 mb 0.00 in0.0 mm 0.00 in0.0 mm 0.25 in6.4 mm
11:45 AM 95.2°F35.1°C 66.2°F19.0°C 39% 7.0 mph W11.3 kmh W 10.0 mph16.1 kmh 30.00 in1015.9 mb 0.00 in0.0 mm 0.00 in0.0 mm 0.25 in6.4 mm
11:50 AM 95.3°F35.2°C 65.6°F18.7°C 38% 5.0 mph W8.0 kmh W 8.0 mph12.9 kmh 30.00 in1015.9 mb 0.00 in0.0 mm 0.00 in0.0 mm 0.25 in6.4 mm
11:55 AM 95.3°F35.2°C 65.6°F18.7°C 38% 1.0 mph WSW1.6 kmh WSW 5.0 mph8.0 kmh 30.00 in1015.9 mb 0.00 in0.0 mm 0.00 in0.0 mm 0.25 in6.4 mm
12:00 PM 95.0°F35.0°C 65.3°F18.5°C 38% 3.0 mph SW4.8 kmh SW 7.0 mph11.3 kmh 30.00 in1015.9 mb 0.00 in0.0 mm 0.00 in0.0 mm 0.25 in6.4 mm
12:05 PM 94.7°F34.8°C 65.0°F18.3°C 38% 8.0 mph WSW12.9 kmh WSW 10.0 mph16.1 kmh 30.00 in1015.9 mb 0.00 in0.0 mm 0.00 in0.0 mm 0.25 in6.4 mm
12:10 PM 94.3°F34.6°C 66.2°F19.0°C 40% Calm Calm 9.0 mph14.5 kmh 29.99 in1015.6 mb 0.00 in0.0 mm 0.00 in0.0 mm 0.25 in6.4 mm
12:15 PM 94.0°F34.4°C 65.2°F18.4°C 39% 7.0 mph WSW11.3 kmh WSW 8.0 mph12.9 kmh 29.99 in1015.6 mb 0.00 in0.0 mm 0.00 in0.0 mm 0.25 in6.4 mm
12:20 PM 93.8°F34.3°C 65.7°F18.7°C 40% 5.0 mph 8.0 kmh 8.0 mph12.9 kmh 29.99 in1015.6 mb 0.00 in0.0 mm 0.00 in0.0 mm 0.25 in6.4 mm
12:25 PM 94.0°F34.4°C 65.9°F18.8°C 40% Calm Calm 8.0 mph12.9 kmh 29.99 in1015.6 mb 0.00 in0.0 mm 0.00 in0.0 mm 0.25 in6.4 mm
12:30 PM 94.6°F34.8°C 66.4°F19.1°C 40% 2.0 mph NW3.2 kmh NW 4.0 mph6.4 kmh 29.99 in1015.6 mb 0.00 in0.0 mm 0.00 in0.0 mm 0.25 in6.4 mm
12:35 PM 95.4°F35.2°C 66.4°F19.1°C 39% 2.0 mph S3.2 kmh S 5.0 mph8.0 kmh 29.99 in1015.6 mb 0.00 in0.0 mm 0.00 in0.0 mm 0.25 in6.4 mm
12:40 PM 96.3°F35.7°C 65.7°F18.7°C 37% 5.0 mph W8.0 kmh W 8.0 mph12.9 kmh 29.98 in1015.2 mb 0.00 in0.0 mm 0.00 in0.0 mm 0.25 in6.4 mm
12:45 PM 96.8°F36.0°C 66.1°F18.9°C 37% 7.0 mph WSW11.3 kmh WSW 11.0 mph17.7 kmh 29.98 in1015.2 mb 0.00 in0.0 mm 0.00 in0.0 mm 0.25 in6.4 mm
12:50 PM 96.9°F36.1°C 66.2°F19.0°C 37% Calm Calm 10.0 mph16.1 kmh 29.98 in1015.2 mb 0.00 in0.0 mm 0.00 in0.0 mm 0.25 in6.4 mm
12:55 PM 96.9°F36.1°C 66.2°F19.0°C 37% 4.0 mph SW6.4 kmh SW 8.0 mph12.9 kmh 29.97 in1014.9 mb 0.00 in0.0 mm 0.00 in0.0 mm 0.25 in6.4 mm
01:00 PM 97.1°F36.2°C 65.6°F18.7°C 36% 3.0 mph SW4.8 kmh SW 11.0 mph17.7 kmh 29.97 in1014.9 mb 0.00 in0.0 mm 0.00 in0.0 mm 0.25 in6.4 mm
01:05 PM 97.2°F36.2°C 65.7°F18.7°C 36% 6.0 mph WSW9.7 kmh WSW 8.0 mph12.9 kmh 29.97 in1014.9 mb 0.00 in0.0 mm 0.00 in0.0 mm 0.25 in6.4 mm
01:10 PM 97.0°F36.1°C 65.5°F18.6°C 36% 2.0 mph NW3.2 kmh NW 8.0 mph12.9 kmh 29.97 in1014.9 mb 0.00 in0.0 mm 0.00 in0.0 mm 0.25 in6.4 mm
01:15 PM 97.0°F36.1°C 65.5°F18.6°C 36% 2.0 mph NW3.2 kmh NW 6.0 mph9.7 kmh 29.96 in1014.6 mb 0.00 in0.0 mm 0.00 in0.0 mm 0.25 in6.4 mm
01:20 PM 97.0°F36.1°C 65.5°F18.6°C 36% 2.0 mph SW3.2 kmh SW 6.0 mph9.7 kmh 29.96 in1014.6 mb 0.00 in0.0 mm 0.00 in0.0 mm 0.25 in6.4 mm
01:25 PM 97.4°F36.3°C 65.9°F18.8°C 36% 2.0 mph SW3.2 kmh SW 8.0 mph12.9 kmh 29.96 in1014.6 mb 0.00 in0.0 mm 0.00 in0.0 mm 0.25 in6.4 mm
01:30 PM 98.2°F36.8°C 66.6°F19.2°C 36% 5.0 mph W8.0 kmh W 6.0 mph9.7 kmh 29.95 in1014.2 mb 0.00 in0.0 mm 0.00 in0.0 mm 0.25 in6.4 mm
01:35 PM 99.0°F37.2°C 66.4°F19.1°C 35% 4.0 mph SW6.4 kmh SW 10.0 mph16.1 kmh 29.95 in1014.2 mb 0.00 in0.0 mm 0.00 in0.0 mm 0.25 in6.4 mm
01:40 PM 98.9°F37.2°C 65.5°F18.6°C 34% 2.0 mph WSW3.2 kmh WSW 9.0 mph14.5 kmh 29.95 in1014.2 mb 0.00 in0.0 mm 0.00 in0.0 mm 0.25 in6.4 mm
01:45 PM 98.8°F37.1°C 65.4°F18.6°C 34% 4.0 mph W6.4 kmh W 9.0 mph14.5 kmh 29.95 in1014.2 mb 0.00 in0.0 mm 0.00 in0.0 mm 0.25 in6.4 mm
01:50 PM 98.9°F37.2°C 64.7°F18.2°C 33% 2.0 mph WSW3.2 kmh WSW 6.0 mph9.7 kmh 29.94 in1013.9 mb 0.00 in0.0 mm 0.00 in0.0 mm 0.25 in6.4 mm
01:55 PM 99.4°F37.4°C 65.1°F18.4°C 33% 2.0 mph SSE3.2 kmh SSE 6.0 mph9.7 kmh 29.94 in1013.9 mb 0.00 in0.0 mm 0.00 in0.0 mm 0.25 in6.4 mm
02:00 PM 100.4°F38.0°C 65.1°F18.4°C 32% 5.0 mph SW8.0 kmh SW 9.0 mph14.5 kmh 29.94 in1013.9 mb 0.00 in0.0 mm 0.00 in0.0 mm 0.25 in6.4 mm
02:05 PM 100.8°F38.2°C 63.6°F17.6°C 30% Calm Calm 7.0 mph11.3 kmh 29.94 in1013.9 mb 0.00 in0.0 mm 0.00 in0.0 mm 0.25 in6.4 mm
02:10 PM 101.2°F38.4°C 63.9°F17.7°C 30% 3.0 mph SW4.8 kmh SW 5.0 mph8.0 kmh 29.93 in1013.5 mb 0.00 in0.0 mm 0.00 in0.0 mm 0.25 in6.4 mm
02:15 PM 101.7°F38.7°C 64.3°F17.9°C 30% 5.0 mph SW8.0 kmh SW 8.0 mph12.9 kmh 29.93 in1013.5 mb 0.00 in0.0 mm 0.00 in0.0 mm 0.25 in6.4 mm
02:20 PM 102.1°F38.9°C 63.7°F17.6°C 29% 5.0 mph SW8.0 kmh SW 11.0 mph17.7 kmh 29.93 in1013.5 mb 0.00 in0.0 mm 0.00 in0.0 mm 0.25 in6.4 mm
02:25 PM 102.0°F38.9°C 63.6°F17.6°C 29% 4.0 mph NW6.4 kmh NW 7.0 mph11.3 kmh 29.92 in1013.2 mb 0.00 in0.0 mm 0.00 in0.0 mm 0.25 in6.4 mm
02:30 PM 101.4°F38.6°C 63.1°F17.3°C 29% 1.0 mph WSW1.6 kmh WSW 6.0 mph9.7 kmh 29.92 in1013.2 mb 0.00 in0.0 mm 0.00 in0.0 mm 0.25 in6.4 mm
02:35 PM 101.3°F38.5°C 64.0°F17.8°C 30% 5.0 mph SW8.0 kmh SW 10.0 mph16.1 kmh 29.92 in1013.2 mb 0.00 in0.0 mm 0.00 in0.0 mm 0.25 in6.4 mm
02:40 PM 101.4°F38.6°C 63.1°F17.3°C 29% 4.0 mph W6.4 kmh W 8.0 mph12.9 kmh 29.92 in1013.2 mb 0.00 in0.0 mm 0.00 in0.0 mm 0.25 in6.4 mm
02:45 PM 101.3°F38.5°C 64.0°F17.8°C 30% 4.0 mph WSW6.4 kmh WSW 11.0 mph17.7 kmh 29.92 in1013.2 mb 0.00 in0.0 mm 0.00 in0.0 mm 0.25 in6.4 mm
02:50 PM 101.1°F38.4°C 63.8°F17.7°C 30% 10.0 mph W16.1 kmh W 13.0 mph20.9 kmh 29.91 in1012.9 mb 0.00 in0.0 mm 0.00 in0.0 mm 0.25 in6.4 mm
02:55 PM 100.8°F38.2°C 63.6°F17.6°C 30% 9.0 mph 14.5 kmh 9.0 mph14.5 kmh 29.91 in1012.9 mb 0.00 in0.0 mm 0.00 in0.0 mm 0.25 in6.4 mm
03:00 PM 100.8°F38.2°C 63.6°F17.6°C 30% 4.0 mph WSW6.4 kmh WSW 10.0 mph16.1 kmh 29.91 in1012.9 mb 0.00 in0.0 mm 0.00 in0.0 mm 0.25 in6.4 mm
03:05 PM 100.9°F38.3°C 62.7°F17.1°C 29% 1.0 mph SW1.6 kmh SW 11.0 mph17.7 kmh 29.91 in1012.9 mb 0.00 in0.0 mm 0.00 in0.0 mm 0.25 in6.4 mm
03:10 PM 101.1°F38.4°C 63.8°F17.7°C 30% 4.0 mph 6.4 kmh 10.0 mph16.1 kmh 29.90 in1012.5 mb 0.00 in0.0 mm 0.00 in0.0 mm 0.25 in6.4 mm
03:15 PM 101.3°F38.5°C 63.0°F17.2°C 29% 9.0 mph WSW14.5 kmh WSW 11.0 mph17.7 kmh 29.90 in1012.5 mb 0.00 in0.0 mm 0.00 in0.0 mm 0.25 in6.4 mm
03:20 PM 101.6°F38.7°C 63.3°F17.4°C 29% 8.0 mph WSW12.9 kmh WSW 14.0 mph22.5 kmh 29.90 in1012.5 mb 0.00 in0.0 mm 0.00 in0.0 mm 0.25 in6.4 mm
03:25 PM 101.5°F38.6°C 63.2°F17.3°C 29% 2.0 mph WSW3.2 kmh WSW 11.0 mph17.7 kmh 29.90 in1012.5 mb 0.00 in0.0 mm 0.00 in0.0 mm 0.25 in6.4 mm
03:30 PM 101.5°F38.6°C 63.2°F17.3°C 29% 7.0 mph W11.3 kmh W 13.0 mph20.9 kmh 29.90 in1012.5 mb 0.00 in0.0 mm 0.00 in0.0 mm 0.25 in6.4 mm
03:35 PM 101.3°F38.5°C 63.0°F17.2°C 29% 5.0 mph WSW8.0 kmh WSW 11.0 mph17.7 kmh 29.90 in1012.5 mb 0.00 in0.0 mm 0.00 in0.0 mm 0.25 in6.4 mm
03:40 PM 101.2°F38.4°C 62.9°F17.2°C 29% 6.0 mph W9.7 kmh W 8.0 mph12.9 kmh 29.89 in1012.2 mb 0.00 in0.0 mm 0.00 in0.0 mm 0.25 in6.4 mm
03:45 PM 101.4°F38.6°C 62.1°F16.7°C 28% 7.0 mph WNW11.3 kmh WNW 9.0 mph14.5 kmh 29.89 in1012.2 mb 0.00 in0.0 mm 0.00 in0.0 mm 0.25 in6.4 mm
03:50 PM 101.1°F38.4°C 61.9°F16.6°C 28% 7.0 mph W11.3 kmh W 11.0 mph17.7 kmh 29.89 in1012.2 mb 0.00 in0.0 mm 0.00 in0.0 mm 0.25 in6.4 mm
03:55 PM 101.0°F38.3°C 61.8°F16.6°C 28% Calm Calm 10.0 mph16.1 kmh 29.89 in1012.2 mb 0.00 in0.0 mm 0.00 in0.0 mm 0.25 in6.4 mm
04:00 PM 101.2°F38.4°C 61.9°F16.6°C 28% Calm Calm 6.0 mph9.7 kmh 29.88 in1011.9 mb 0.00 in0.0 mm 0.00 in0.0 mm 0.25 in6.4 mm
04:05 PM 101.4°F38.6°C 62.1°F16.7°C 28% 9.0 mph 14.5 kmh 9.0 mph14.5 kmh 29.88 in1011.9 mb 0.00 in0.0 mm 0.00 in0.0 mm 0.25 in6.4 mm
04:10 PM 101.6°F38.7°C 62.3°F16.8°C 28% 7.0 mph WSW11.3 kmh WSW 13.0 mph20.9 kmh 29.88 in1011.9 mb 0.00 in0.0 mm 0.00 in0.0 mm 0.25 in6.4 mm
04:15 PM 101.3°F38.5°C 61.0°F16.1°C 27% 4.0 mph WNW6.4 kmh WNW 11.0 mph17.7 kmh 29.88 in1011.9 mb 0.00 in0.0 mm 0.00 in0.0 mm 0.25 in6.4 mm
04:20 PM 100.9°F38.3°C 61.7°F16.5°C 28% 3.0 mph W4.8 kmh W 7.0 mph11.3 kmh 29.88 in1011.9 mb 0.00 in0.0 mm 0.00 in0.0 mm 0.25 in6.4 mm
04:25 PM 100.8°F38.2°C 61.6°F16.4°C 28% 8.0 mph SW12.9 kmh SW 13.0 mph20.9 kmh 29.88 in1011.9 mb 0.00 in0.0 mm 0.00 in0.0 mm 0.25 in6.4 mm
04:30 PM 100.9°F38.3°C 60.7°F15.9°C 27% Calm Calm 10.0 mph16.1 kmh 29.87 in1011.5 mb 0.00 in0.0 mm 0.00 in0.0 mm 0.25 in6.4 mm
04:35 PM 101.0°F38.3°C 61.8°F16.6°C 28% 5.0 mph WSW8.0 kmh WSW 11.0 mph17.7 kmh 29.87 in1011.5 mb 0.00 in0.0 mm 0.00 in0.0 mm 0.25 in6.4 mm
04:40 PM 101.1°F38.4°C 60.8°F16.0°C 27% 3.0 mph NW4.8 kmh NW 9.0 mph14.5 kmh 29.87 in1011.5 mb 0.00 in0.0 mm 0.00 in0.0 mm 0.25 in6.4 mm
04:45 PM 101.0°F38.3°C 61.8°F16.6°C 28% 3.0 mph SW4.8 kmh SW 12.0 mph19.3 kmh 29.87 in1011.5 mb 0.00 in0.0 mm 0.00 in0.0 mm 0.25 in6.4 mm
04:50 PM 101.2°F38.4°C 61.9°F16.6°C 28% 5.0 mph SW8.0 kmh SW 11.0 mph17.7 kmh 29.87 in1011.5 mb 0.00 in0.0 mm 0.00 in0.0 mm 0.25 in6.4 mm
04:55 PM 101.3°F38.5°C 62.0°F16.7°C 28% 8.0 mph WSW12.9 kmh WSW 12.0 mph19.3 kmh 29.87 in1011.5 mb 0.00 in0.0 mm 0.00 in0.0 mm 0.25 in6.4 mm
05:00 PM 101.2°F38.4°C 62.9°F17.2°C 29% 8.0 mph 12.9 kmh 12.0 mph19.3 kmh 29.87 in1011.5 mb 0.00 in0.0 mm 0.00 in0.0 mm 0.25 in6.4 mm
05:05 PM 101.2°F38.4°C 62.9°F17.2°C 29% 4.0 mph 6.4 kmh 10.0 mph16.1 kmh 29.87 in1011.5 mb 0.00 in0.0 mm 0.00 in0.0 mm 0.25 in6.4 mm
05:10 PM 101.4°F38.6°C 63.1°F17.3°C 29% 6.0 mph 9.7 kmh 7.0 mph11.3 kmh 29.86 in1011.2 mb 0.00 in0.0 mm 0.00 in0.0 mm 0.25 in6.4 mm
05:15 PM 101.4°F38.6°C 62.1°F16.7°C 28% 3.0 mph 4.8 kmh 10.0 mph16.1 kmh 29.86 in1011.2 mb 0.00 in0.0 mm 0.00 in0.0 mm 0.25 in6.4 mm
05:20 PM 101.4°F38.6°C 63.1°F17.3°C 29% 7.0 mph WSW11.3 kmh WSW 12.0 mph19.3 kmh 29.86 in1011.2 mb 0.00 in0.0 mm 0.00 in0.0 mm 0.25 in6.4 mm
05:25 PM 101.3°F38.5°C 63.0°F17.2°C 29% 12.0 mph SW19.3 kmh SW 14.0 mph22.5 kmh 29.86 in1011.2 mb 0.00 in0.0 mm 0.00 in0.0 mm 0.25 in6.4 mm
05:30 PM 100.9°F38.3°C 63.6°F17.6°C 30% 5.0 mph WSW8.0 kmh WSW 13.0 mph20.9 kmh 29.86 in1011.2 mb 0.00 in0.0 mm 0.00 in0.0 mm 0.25 in6.4 mm
05:35 PM 100.7°F38.2°C 63.5°F17.5°C 30% 7.0 mph WSW11.3 kmh WSW 10.0 mph16.1 kmh 29.86 in1011.2 mb 0.00 in0.0 mm 0.00 in0.0 mm 0.25 in6.4 mm
05:40 PM 100.3°F37.9°C 63.1°F17.3°C 30% 4.0 mph WNW6.4 kmh WNW 12.0 mph19.3 kmh 29.86 in1011.2 mb 0.00 in0.0 mm 0.00 in0.0 mm 0.25 in6.4 mm
05:45 PM 99.9°F37.7°C 62.8°F17.1°C 30% 6.0 mph SW9.7 kmh SW 13.0 mph20.9 kmh 29.86 in1011.2 mb 0.00 in0.0 mm 0.00 in0.0 mm 0.25 in6.4 mm
05:50 PM 99.7°F37.6°C 62.6°F17.0°C 30% 7.0 mph SW11.3 kmh SW 11.0 mph17.7 kmh 29.86 in1011.2 mb 0.00 in0.0 mm 0.00 in0.0 mm 0.25 in6.4 mm
05:55 PM 99.7°F37.6°C 62.6°F17.0°C 30% 3.0 mph W4.8 kmh W 11.0 mph17.7 kmh 29.86 in1011.2 mb 0.00 in0.0 mm 0.00 in0.0 mm 0.25 in6.4 mm
06:00 PM 99.8°F37.7°C 63.6°F17.6°C 31% 7.0 mph NW11.3 kmh NW 12.0 mph19.3 kmh 29.86 in1011.2 mb 0.00 in0.0 mm 0.00 in0.0 mm 0.25 in6.4 mm
06:05 PM 99.6°F37.6°C 63.5°F17.5°C 31% 7.0 mph WNW11.3 kmh WNW 10.0 mph16.1 kmh 29.86 in1011.2 mb 0.00 in0.0 mm 0.00 in0.0 mm 0.25 in6.4 mm
06:10 PM 99.4°F37.4°C 64.2°F17.9°C 32% 8.0 mph NW12.9 kmh NW 11.0 mph17.7 kmh 29.86 in1011.2 mb 0.00 in0.0 mm 0.00 in0.0 mm 0.25 in6.4 mm
06:15 PM 99.1°F37.3°C 63.9°F17.7°C 32% 5.0 mph NW8.0 kmh NW 11.0 mph17.7 kmh 29.86 in1011.2 mb 0.00 in0.0 mm 0.00 in0.0 mm 0.25 in6.4 mm
06:20 PM 98.7°F37.1°C 63.6°F17.6°C 32% 5.0 mph W8.0 kmh W 13.0 mph20.9 kmh 29.87 in1011.5 mb 0.00 in0.0 mm 0.00 in0.0 mm 0.25 in6.4 mm
06:25 PM 98.2°F36.8°C 63.2°F17.3°C 32% 7.0 mph W11.3 kmh W 10.0 mph16.1 kmh 29.87 in1011.5 mb 0.00 in0.0 mm 0.00 in0.0 mm 0.25 in6.4 mm
06:30 PM 97.7°F36.5°C 63.6°F17.6°C 33% 4.0 mph NW6.4 kmh NW 9.0 mph14.5 kmh 29.87 in1011.5 mb 0.00 in0.0 mm 0.00 in0.0 mm 0.25 in6.4 mm
06:35 PM 97.4°F36.3°C 63.4°F17.4°C 33% 4.0 mph W6.4 kmh W 11.0 mph17.7 kmh 29.88 in1011.9 mb 0.00 in0.0 mm 0.00 in0.0 mm 0.25 in6.4 mm
06:40 PM 97.1°F36.2°C 64.0°F17.8°C 34% 10.0 mph W16.1 kmh W 11.0 mph17.7 kmh 29.88 in1011.9 mb 0.00 in0.0 mm 0.00 in0.0 mm 0.25 in6.4 mm
06:45 PM 96.9°F36.1°C 63.8°F17.7°C 34% 2.0 mph W3.2 kmh W 11.0 mph17.7 kmh 29.88 in1011.9 mb 0.00 in0.0 mm 0.00 in0.0 mm 0.25 in6.4 mm
06:50 PM 96.7°F35.9°C 63.6°F17.6°C 34% 7.0 mph WSW11.3 kmh WSW 11.0 mph17.7 kmh 29.89 in1012.2 mb 0.00 in0.0 mm 0.00 in0.0 mm 0.25 in6.4 mm
06:55 PM 96.4°F35.8°C 63.3°F17.4°C 34% 5.0 mph WSW8.0 kmh WSW 12.0 mph19.3 kmh 29.89 in1012.2 mb 0.00 in0.0 mm 0.00 in0.0 mm 0.25 in6.4 mm
07:00 PM 96.2°F35.7°C 64.0°F17.8°C 35% 6.0 mph WNW9.7 kmh WNW 11.0 mph17.7 kmh 29.89 in1012.2 mb 0.00 in0.0 mm 0.00 in0.0 mm 0.25 in6.4 mm
07:05 PM 96.0°F35.6°C 63.8°F17.7°C 35% 5.0 mph WNW8.0 kmh WNW 9.0 mph14.5 kmh 29.90 in1012.5 mb 0.00 in0.0 mm 0.00 in0.0 mm 0.25 in6.4 mm
07:10 PM 95.8°F35.4°C 64.5°F18.1°C 36% 4.0 mph W6.4 kmh W 9.0 mph14.5 kmh 29.89 in1012.2 mb 0.00 in0.0 mm 0.00 in0.0 mm 0.25 in6.4 mm
07:15 PM 95.5°F35.3°C 64.2°F17.9°C 36% 5.0 mph WNW8.0 kmh WNW 13.0 mph20.9 kmh 29.89 in1012.2 mb 0.00 in0.0 mm 0.00 in0.0 mm 0.25 in6.4 mm
07:20 PM 95.3°F35.2°C 64.0°F17.8°C 36% 6.0 mph W9.7 kmh W 12.0 mph19.3 kmh 29.89 in1012.2 mb 0.00 in0.0 mm 0.00 in0.0 mm 0.25 in6.4 mm
07:25 PM 95.1°F35.1°C 63.8°F17.7°C 36% 5.0 mph W8.0 kmh W 9.0 mph14.5 kmh 29.89 in1012.2 mb 0.00 in0.0 mm 0.00 in0.0 mm 0.25 in6.4 mm
07:30 PM 94.9°F34.9°C 63.7°F17.6°C 36% 3.0 mph W4.8 kmh W 9.0 mph14.5 kmh 29.89 in1012.2 mb 0.00 in0.0 mm 0.00 in0.0 mm 0.25 in6.4 mm
07:35 PM 94.6°F34.8°C 63.4°F17.4°C 36% 6.0 mph W9.7 kmh W 11.0 mph17.7 kmh 29.89 in1012.2 mb 0.00 in0.0 mm 0.00 in0.0 mm 0.25 in6.4 mm
07:40 PM 94.5°F34.7°C 63.3°F17.4°C 36% 5.0 mph WSW8.0 kmh WSW 9.0 mph14.5 kmh 29.90 in1012.5 mb 0.00 in0.0 mm 0.00 in0.0 mm 0.25 in6.4 mm
07:45 PM 94.3°F34.6°C 63.1°F17.3°C 36% 3.0 mph WNW4.8 kmh WNW 9.0 mph14.5 kmh 29.89 in1012.2 mb 0.00 in0.0 mm 0.00 in0.0 mm 0.25 in6.4 mm
07:50 PM 94.1°F34.5°C 63.7°F17.6°C 37% 4.0 mph NW6.4 kmh NW 7.0 mph11.3 kmh 29.89 in1012.2 mb 0.00 in0.0 mm 0.00 in0.0 mm 0.25 in6.4 mm
07:55 PM 93.9°F34.4°C 63.6°F17.6°C 37% Calm Calm 7.0 mph11.3 kmh 29.89 in1012.2 mb 0.00 in0.0 mm 0.00 in0.0 mm 0.25 in6.4 mm
08:00 PM 93.8°F34.3°C 63.5°F17.5°C 37% 2.0 mph W3.2 kmh W 5.0 mph8.0 kmh 29.90 in1012.5 mb 0.00 in0.0 mm 0.00 in0.0 mm 0.25 in6.4 mm
08:05 PM 93.6°F34.2°C 63.3°F17.4°C 37% 5.0 mph WNW8.0 kmh WNW 7.0 mph11.3 kmh 29.90 in1012.5 mb 0.00 in0.0 mm 0.00 in0.0 mm 0.25 in6.4 mm
08:10 PM 93.5°F34.2°C 63.2°F17.3°C 37% 4.0 mph WNW6.4 kmh WNW 6.0 mph9.7 kmh 29.90 in1012.5 mb 0.00 in0.0 mm 0.00 in0.0 mm 0.25 in6.4 mm
08:15 PM 93.4°F34.1°C 63.1°F17.3°C 37% 2.0 mph W3.2 kmh W 5.0 mph8.0 kmh 29.91 in1012.9 mb 0.00 in0.0 mm 0.00 in0.0 mm 0.25 in6.4 mm
08:20 PM 93.3°F34.1°C 63.0°F17.2°C 37% 4.0 mph WNW6.4 kmh WNW 5.0 mph8.0 kmh 29.91 in1012.9 mb 0.00 in0.0 mm 0.00 in0.0 mm 0.25 in6.4 mm
08:25 PM 93.2°F34.0°C 63.0°F17.2°C 37% 3.0 mph WNW4.8 kmh WNW 6.0 mph9.7 kmh 29.91 in1012.9 mb 0.00 in0.0 mm 0.00 in0.0 mm 0.25 in6.4 mm
08:30 PM 93.1°F33.9°C 62.9°F17.2°C 37% 2.0 mph WNW3.2 kmh WNW 4.0 mph6.4 kmh 29.91 in1012.9 mb 0.00 in0.0 mm 0.00 in0.0 mm 0.25 in6.4 mm
08:35 PM 92.9°F33.8°C 62.7°F17.1°C 37% 2.0 mph WNW3.2 kmh WNW 6.0 mph9.7 kmh 29.91 in1012.9 mb 0.00 in0.0 mm 0.00 in0.0 mm 0.25 in6.4 mm
08:40 PM 92.8°F33.8°C 62.6°F17.0°C 37% 3.0 mph WNW4.8 kmh WNW 5.0 mph8.0 kmh 29.91 in1012.9 mb 0.00 in0.0 mm 0.00 in0.0 mm 0.25 in6.4 mm
08:45 PM 92.7°F33.7°C 62.5°F16.9°C 37% 3.0 mph WNW4.8 kmh WNW 4.0 mph6.4 kmh 29.91 in1012.9 mb 0.00 in0.0 mm 0.00 in0.0 mm 0.25 in6.4 mm
08:50 PM 92.7°F33.7°C 62.5°F16.9°C 37% 2.0 mph WNW3.2 kmh WNW 4.0 mph6.4 kmh 29.91 in1012.9 mb 0.00 in0.0 mm 0.00 in0.0 mm 0.25 in6.4 mm
08:55 PM 92.5°F33.6°C 63.1°F17.3°C 38% Calm Calm 4.0 mph6.4 kmh 29.92 in1013.2 mb 0.00 in0.0 mm 0.00 in0.0 mm 0.25 in6.4 mm
09:00 PM 92.4°F33.6°C 63.0°F17.2°C 38% 3.0 mph WNW4.8 kmh WNW 5.0 mph8.0 kmh 29.92 in1013.2 mb 0.00 in0.0 mm 0.00 in0.0 mm 0.25 in6.4 mm
09:05 PM 92.4°F33.6°C 63.0°F17.2°C 38% Calm Calm 4.0 mph6.4 kmh 29.93 in1013.5 mb 0.00 in0.0 mm 0.00 in0.0 mm 0.25 in6.4 mm
09:10 PM 92.3°F33.5°C 62.9°F17.2°C 38% 3.0 mph W4.8 kmh W 3.0 mph4.8 kmh 29.93 in1013.5 mb 0.00 in0.0 mm 0.00 in0.0 mm 0.25 in6.4 mm
09:15 PM 92.2°F33.4°C 62.1°F16.7°C 37% 3.0 mph W4.8 kmh W 5.0 mph8.0 kmh 29.93 in1013.5 mb 0.00 in0.0 mm 0.00 in0.0 mm 0.25 in6.4 mm
09:20 PM 92.1°F33.4°C 62.0°F16.7°C 37% 7.0 mph W11.3 kmh W 7.0 mph11.3 kmh 29.94 in1013.9 mb 0.00 in0.0 mm 0.00 in0.0 mm 0.25 in6.4 mm
09:25 PM 92.1°F33.4°C 62.0°F16.7°C 37% 6.0 mph W9.7 kmh W 7.0 mph11.3 kmh 29.94 in1013.9 mb 0.00 in0.0 mm 0.00 in0.0 mm 0.25 in6.4 mm
09:30 PM 92.0°F33.3°C 61.9°F16.6°C 37% 1.0 mph W1.6 kmh W 5.0 mph8.0 kmh 29.94 in1013.9 mb 0.00 in0.0 mm 0.00 in0.0 mm 0.25 in6.4 mm
09:35 PM 92.0°F33.3°C 61.9°F16.6°C 37% Calm Calm 5.0 mph8.0 kmh 29.94 in1013.9 mb 0.00 in0.0 mm 0.00 in0.0 mm 0.25 in6.4 mm
09:40 PM 92.0°F33.3°C 61.9°F16.6°C 37% Calm Calm 3.0 mph4.8 kmh 29.95 in1014.2 mb 0.00 in0.0 mm 0.00 in0.0 mm 0.25 in6.4 mm
09:45 PM 91.9°F33.3°C 61.8°F16.6°C 37% Calm Calm 4.0 mph6.4 kmh 29.95 in1014.2 mb 0.00 in0.0 mm 0.00 in0.0 mm 0.25 in6.4 mm
09:50 PM 91.8°F33.2°C 61.7°F16.5°C 37% 1.0 mph WNW1.6 kmh WNW 3.0 mph4.8 kmh 29.94 in1013.9 mb 0.00 in0.0 mm 0.00 in0.0 mm 0.25 in6.4 mm
09:55 PM 91.7°F33.2°C 62.4°F16.9°C 38% Calm Calm 2.0 mph3.2 kmh 29.95 in1014.2 mb 0.00 in0.0 mm 0.00 in0.0 mm 0.25 in6.4 mm
10:00 PM 91.6°F33.1°C 62.3°F16.8°C 38% Calm Calm -- 29.95 in1014.2 mb 0.00 in0.0 mm 0.00 in0.0 mm 0.25 in6.4 mm
10:05 PM 91.5°F33.1°C 62.2°F16.8°C 38% Calm Calm -- 29.94 in1013.9 mb 0.00 in0.0 mm 0.00 in0.0 mm 0.25 in6.4 mm
10:10 PM 91.3°F32.9°C 63.5°F17.5°C 40% Calm Calm -- 29.95 in1014.2 mb 0.00 in0.0 mm 0.00 in0.0 mm 0.25 in6.4 mm
10:15 PM 91.1°F32.8°C 64.0°F17.8°C 41% Calm Calm -- 29.95 in1014.2 mb 0.00 in0.0 mm 0.00 in0.0 mm 0.25 in6.4 mm
10:20 PM 90.8°F32.7°C 64.4°F18.0°C 42% Calm Calm -- 29.94 in1013.9 mb 0.00 in0.0 mm 0.00 in0.0 mm 0.25 in6.4 mm
10:25 PM 90.5°F32.5°C 63.5°F17.5°C 41% 1.0 mph NW1.6 kmh NW 1.0 mph1.6 kmh 29.94 in1013.9 mb 0.00 in0.0 mm 0.00 in0.0 mm 0.25 in6.4 mm
10:30 PM 90.2°F32.3°C 63.2°F17.3°C 41% Calm Calm 2.0 mph3.2 kmh 29.94 in1013.9 mb 0.00 in0.0 mm 0.00 in0.0 mm 0.25 in6.4 mm
10:35 PM 89.9°F32.2°C 62.2°F16.8°C 40% 2.0 mph NNW3.2 kmh NNW 3.0 mph4.8 kmh 29.93 in1013.5 mb 0.00 in0.0 mm 0.00 in0.0 mm 0.25 in6.4 mm
10:40 PM 89.7°F32.1°C 62.8°F17.1°C 41% Calm Calm 4.0 mph6.4 kmh 29.93 in1013.5 mb 0.00 in0.0 mm 0.00 in0.0 mm 0.25 in6.4 mm
10:45 PM 89.6°F32.0°C 63.4°F17.4°C 42% 1.0 mph NNE1.6 kmh NNE 2.0 mph3.2 kmh 29.93 in1013.5 mb 0.00 in0.0 mm 0.00 in0.0 mm 0.25 in6.4 mm
10:50 PM 89.5°F31.9°C 64.0°F17.8°C 43% 2.0 mph NNE3.2 kmh NNE 3.0 mph4.8 kmh 29.93 in1013.5 mb 0.00 in0.0 mm 0.00 in0.0 mm 0.25 in6.4 mm
10:55 PM 89.4°F31.9°C 63.2°F17.3°C 42% 1.0 mph NNE1.6 kmh NNE 3.0 mph4.8 kmh 29.93 in1013.5 mb 0.00 in0.0 mm 0.00 in0.0 mm 0.25 in6.4 mm
11:00 PM 89.3°F31.8°C 63.1°F17.3°C 42% Calm Calm 2.0 mph3.2 kmh 29.93 in1013.5 mb 0.00 in0.0 mm 0.00 in0.0 mm 0.25 in6.4 mm
11:05 PM 89.2°F31.8°C 63.0°F17.2°C 42% Calm Calm 1.0 mph1.6 kmh 29.93 in1013.5 mb 0.00 in0.0 mm 0.00 in0.0 mm 0.25 in6.4 mm
11:10 PM 89.1°F31.7°C 62.9°F17.2°C 42% Calm Calm 2.0 mph3.2 kmh 29.93 in1013.5 mb 0.00 in0.0 mm 0.00 in0.0 mm 0.25 in6.4 mm
11:15 PM 89.0°F31.7°C 63.5°F17.5°C 43% 1.0 mph NNE1.6 kmh NNE 3.0 mph4.8 kmh 29.93 in1013.5 mb 0.00 in0.0 mm 0.00 in0.0 mm 0.25 in6.4 mm
11:20 PM 88.9°F31.6°C 63.4°F17.4°C 43% Calm Calm 3.0 mph4.8 kmh 29.93 in1013.5 mb 0.00 in0.0 mm 0.00 in0.0 mm 0.25 in6.4 mm
11:25 PM 88.8°F31.6°C 63.3°F17.4°C 43% Calm Calm -- 29.93 in1013.5 mb 0.00 in0.0 mm 0.00 in0.0 mm 0.25 in6.4 mm
11:30 PM 88.8°F31.6°C 63.3°F17.4°C 43% 1.0 mph NNE1.6 kmh NNE 2.0 mph3.2 kmh 29.94 in1013.9 mb 0.00 in0.0 mm 0.00 in0.0 mm 0.25 in6.4 mm
11:35 PM 88.8°F31.6°C 63.3°F17.4°C 43% 1.0 mph NNE1.6 kmh NNE 2.0 mph3.2 kmh 29.94 in1013.9 mb 0.00 in0.0 mm 0.00 in0.0 mm 0.25 in6.4 mm
11:40 PM 88.8°F31.6°C 63.3°F17.4°C 43% Calm Calm 2.0 mph3.2 kmh 29.94 in1013.9 mb 0.00 in0.0 mm 0.00 in0.0 mm 0.25 in6.4 mm
11:45 PM 88.8°F31.6°C 63.3°F17.4°C 43% Calm Calm -- 29.94 in1013.9 mb 0.00 in0.0 mm 0.00 in0.0 mm 0.25 in6.4 mm
11:50 PM 88.8°F31.6°C 64.6°F18.1°C 45% Calm Calm -- 29.93 in1013.5 mb 0.00 in0.0 mm 0.00 in0.0 mm 0.25 in6.4 mm
11:55 PM 88.7°F31.5°C 64.5°F18.1°C 45% 1.0 mph NNE1.6 kmh NNE 2.0 mph3.2 kmh 29.93 in1013.5 mb 0.00 in0.0 mm 0.00 in0.0 mm 0.25 in6.4 mm